createdAt,value
2018-06-14T00:00:51.361Z,0.00
2018-06-14T00:01:51.357Z,0.00
2018-06-14T00:02:51.358Z,0.00
2018-06-14T00:03:51.359Z,0.00
2018-06-14T00:04:51.360Z,0.00
2018-06-14T00:05:51.360Z,0.00
2018-06-14T00:06:51.361Z,0.00
2018-06-14T00:07:51.355Z,0.00
2018-06-14T00:08:51.355Z,0.00
2018-06-14T00:09:51.354Z,0.00
2018-06-14T00:10:51.352Z,0.00
2018-06-14T00:11:51.353Z,0.00
2018-06-14T00:12:51.353Z,0.00
2018-06-14T00:13:51.355Z,0.00
2018-06-14T00:14:51.353Z,0.00
2018-06-14T00:15:51.354Z,0.00
2018-06-14T00:16:51.351Z,0.00
2018-06-14T00:17:51.353Z,0.00
2018-06-14T00:18:51.352Z,0.00
2018-06-14T00:19:51.352Z,0.00
2018-06-14T00:20:51.351Z,0.00
2018-06-14T00:21:51.352Z,0.00
2018-06-14T00:22:51.345Z,0.00
2018-06-14T00:23:51.348Z,0.00
2018-06-14T00:24:51.350Z,0.00
2018-06-14T00:25:51.348Z,0.00
2018-06-14T00:26:51.349Z,0.00
2018-06-14T00:27:51.347Z,0.00
2018-06-14T00:28:51.355Z,0.00
2018-06-14T00:29:51.352Z,0.00
2018-06-14T00:30:51.347Z,0.00
2018-06-14T00:31:51.344Z,0.00
2018-06-14T00:32:51.345Z,0.00
2018-06-14T00:33:51.374Z,0.00
2018-06-14T00:34:51.345Z,0.00
2018-06-14T00:35:51.343Z,0.00
2018-06-14T00:36:51.344Z,0.00
2018-06-14T00:37:51.346Z,0.00
2018-06-14T00:38:51.344Z,0.00
2018-06-14T00:39:51.339Z,0.00
2018-06-14T00:40:51.342Z,0.00
2018-06-14T00:41:51.342Z,0.00
2018-06-14T00:42:51.340Z,0.00
2018-06-14T00:43:51.339Z,0.00
2018-06-14T00:44:51.350Z,0.00
2018-06-14T00:45:51.341Z,0.00
2018-06-14T00:46:51.339Z,0.00
2018-06-14T00:47:51.342Z,0.00
2018-06-14T00:48:51.339Z,0.00
2018-06-14T00:49:51.338Z,0.00
2018-06-14T00:50:51.335Z,0.00
2018-06-14T00:51:51.336Z,0.00
2018-06-14T00:52:51.339Z,0.00
2018-06-14T00:53:51.333Z,0.00
2018-06-14T00:54:51.335Z,0.00
2018-06-14T00:55:51.335Z,0.00
2018-06-14T00:56:51.335Z,0.00
2018-06-14T00:57:51.333Z,0.00
2018-06-14T00:58:51.335Z,0.00
2018-06-14T00:59:51.333Z,0.00
2018-06-14T01:00:51.341Z,0.00
2018-06-14T01:01:51.337Z,0.00
2018-06-14T01:02:51.332Z,0.00
2018-06-14T01:03:51.334Z,0.00
2018-06-14T01:04:51.332Z,0.00
2018-06-14T01:05:51.331Z,0.00
2018-06-14T01:06:51.332Z,0.00
2018-06-14T01:07:51.330Z,0.00
2018-06-14T01:08:51.329Z,0.00
2018-06-14T01:09:51.330Z,0.00
2018-06-14T01:10:51.328Z,0.00
2018-06-14T01:11:51.329Z,0.00
2018-06-14T01:12:51.331Z,0.00
2018-06-14T01:13:51.329Z,0.00
2018-06-14T01:14:51.331Z,0.00
2018-06-14T01:15:51.329Z,0.00
2018-06-14T01:16:51.334Z,0.00
2018-06-14T01:17:51.327Z,0.00
2018-06-14T01:18:51.328Z,0.00
2018-06-14T01:19:51.328Z,0.00
2018-06-14T01:20:51.327Z,0.00
2018-06-14T01:21:51.326Z,0.00
2018-06-14T01:22:51.326Z,0.00
2018-06-14T01:23:51.327Z,0.00
2018-06-14T01:24:51.324Z,0.00
2018-06-14T01:25:51.328Z,0.00
2018-06-14T01:26:51.324Z,0.00
2018-06-14T01:27:51.324Z,0.00
2018-06-14T01:28:51.323Z,0.00
2018-06-14T01:29:51.324Z,0.00
2018-06-14T01:30:51.323Z,0.00
2018-06-14T01:31:51.324Z,0.00
2018-06-14T01:32:51.323Z,0.00
2018-06-14T01:33:51.322Z,0.00
2018-06-14T01:34:51.320Z,0.00
2018-06-14T01:35:51.320Z,0.00
2018-06-14T01:36:51.322Z,0.00
2018-06-14T01:37:51.319Z,0.00
2018-06-14T01:38:51.319Z,0.00
2018-06-14T01:39:51.322Z,0.00
2018-06-14T01:40:51.325Z,0.00
2018-06-14T01:41:51.321Z,0.00
2018-06-14T01:42:51.319Z,0.00
2018-06-14T01:43:51.320Z,0.00
2018-06-14T01:44:51.318Z,0.00
2018-06-14T01:45:51.319Z,0.00
2018-06-14T01:46:51.320Z,0.00
2018-06-14T01:47:51.321Z,0.00
2018-06-14T01:48:51.320Z,0.00
2018-06-14T01:49:51.318Z,0.00
2018-06-14T01:50:51.322Z,0.00
2018-06-14T01:51:51.317Z,0.00
2018-06-14T01:52:51.315Z,0.00
2018-06-14T01:53:51.316Z,0.00
2018-06-14T01:54:51.314Z,0.00
2018-06-14T01:55:51.312Z,0.00
2018-06-14T01:56:51.312Z,0.00
2018-06-14T01:57:51.315Z,0.00
2018-06-14T01:58:51.319Z,0.00
2018-06-14T01:59:51.312Z,0.00
2018-06-14T02:00:51.310Z,0.00
2018-06-14T02:01:51.314Z,0.00
2018-06-14T02:02:51.313Z,0.00
2018-06-14T02:03:51.307Z,0.00
2018-06-14T02:04:51.307Z,0.00
2018-06-14T02:05:51.304Z,0.00
2018-06-14T02:06:51.306Z,0.00
2018-06-14T02:07:51.304Z,0.00
2018-06-14T02:08:51.302Z,0.00
2018-06-14T02:09:51.307Z,0.00
2018-06-14T02:10:51.303Z,0.00
2018-06-14T02:11:51.303Z,0.00
2018-06-14T02:12:51.302Z,0.00
2018-06-14T02:13:51.301Z,0.00
2018-06-14T02:14:51.299Z,0.00
2018-06-14T02:15:51.304Z,0.00
2018-06-14T02:16:51.297Z,0.00
2018-06-14T02:17:51.296Z,0.00
2018-06-14T02:18:51.291Z,0.00
2018-06-14T02:19:51.294Z,0.00
2018-06-14T02:20:51.296Z,0.00
2018-06-14T02:21:51.291Z,0.00
2018-06-14T02:22:51.291Z,0.00
2018-06-14T02:23:51.290Z,0.00
2018-06-14T02:24:51.287Z,0.00
2018-06-14T02:25:51.288Z,0.00
2018-06-14T02:26:51.291Z,0.00
2018-06-14T02:27:51.284Z,0.00
2018-06-14T02:28:51.284Z,0.00
2018-06-14T02:29:51.282Z,0.00
2018-06-14T02:30:51.282Z,0.00
2018-06-14T02:31:51.280Z,0.00
2018-06-14T02:32:51.274Z,0.00
2018-06-14T02:33:51.276Z,0.00
2018-06-14T02:34:51.277Z,0.00
2018-06-14T02:35:51.275Z,0.00
2018-06-14T02:36:51.274Z,0.00
2018-06-14T02:37:51.277Z,0.00
2018-06-14T02:38:51.271Z,0.00
2018-06-14T02:39:51.277Z,0.00
2018-06-14T02:40:51.268Z,0.00
2018-06-14T02:41:51.270Z,0.00
2018-06-14T02:42:51.267Z,0.00
2018-06-14T02:43:51.262Z,0.00
2018-06-14T02:44:51.269Z,0.00
2018-06-14T02:45:51.257Z,0.00
2018-06-14T02:46:51.258Z,0.00
2018-06-14T02:47:51.261Z,0.00
2018-06-14T02:48:51.258Z,0.00
2018-06-14T02:49:51.254Z,0.00
2018-06-14T02:50:51.255Z,0.00
2018-06-14T02:51:51.252Z,0.00
2018-06-14T02:52:51.254Z,0.00
2018-06-14T02:53:51.253Z,0.00
2018-06-14T02:54:51.258Z,0.00
2018-06-14T02:55:51.249Z,0.00
2018-06-14T02:56:51.248Z,0.00
2018-06-14T02:57:51.258Z,0.00
2018-06-14T02:58:51.245Z,0.00
2018-06-14T02:59:51.242Z,0.00
2018-06-14T03:00:51.240Z,0.00
2018-06-14T03:01:51.241Z,0.00
2018-06-14T03:02:51.240Z,0.00
2018-06-14T03:03:51.241Z,0.00
2018-06-14T03:04:51.238Z,0.00
2018-06-14T03:05:51.235Z,0.00
2018-06-14T03:06:51.238Z,0.00
2018-06-14T03:07:51.232Z,0.00
2018-06-14T03:08:51.233Z,0.00
2018-06-14T03:09:51.232Z,5.63
2018-06-14T03:10:51.237Z,5.63
2018-06-14T03:11:51.234Z,5.63
2018-06-14T03:12:51.229Z,5.63
2018-06-14T03:13:51.226Z,5.63
2018-06-14T03:14:51.232Z,5.63
2018-06-14T03:15:51.222Z,5.63
2018-06-14T03:16:51.222Z,5.63
2018-06-14T03:17:51.221Z,5.63
2018-06-14T03:18:51.222Z,5.63
2018-06-14T03:19:51.352Z,5.63
2018-06-14T03:20:51.216Z,5.63
2018-06-14T03:21:51.215Z,5.63
2018-06-14T03:22:51.214Z,5.63
2018-06-14T03:23:51.211Z,5.63
2018-06-14T03:24:51.208Z,5.63
2018-06-14T03:25:51.212Z,5.63
2018-06-14T03:26:51.208Z,5.63
2018-06-14T03:27:51.204Z,5.63
2018-06-14T03:28:51.207Z,5.63
2018-06-14T03:29:51.203Z,5.63
2018-06-14T03:30:51.207Z,5.63
2018-06-14T03:31:51.200Z,5.63
2018-06-14T03:32:51.201Z,5.63
2018-06-14T03:33:51.199Z,5.63
2018-06-14T03:34:51.198Z,11.25
2018-06-14T03:35:51.199Z,11.25
2018-06-14T03:36:51.194Z,11.25
2018-06-14T03:37:51.198Z,11.25
2018-06-14T03:38:51.194Z,11.25
2018-06-14T03:39:51.191Z,11.25
2018-06-14T03:40:51.214Z,11.25
2018-06-14T03:41:51.190Z,11.25
2018-06-14T03:42:51.191Z,11.25
2018-06-14T03:43:51.190Z,11.25
2018-06-14T03:44:51.186Z,11.25
2018-06-14T03:45:51.185Z,11.25
2018-06-14T03:46:51.186Z,11.25
2018-06-14T03:47:51.186Z,11.25
2018-06-14T03:48:51.178Z,11.25
2018-06-14T03:49:51.180Z,11.25
2018-06-14T03:50:51.179Z,11.25
2018-06-14T03:51:51.206Z,11.25
2018-06-14T03:52:51.179Z,11.25
2018-06-14T03:53:51.177Z,11.25
2018-06-14T03:54:51.176Z,11.25
2018-06-14T03:55:51.176Z,11.25
2018-06-14T03:56:51.176Z,11.25
2018-06-14T03:57:51.174Z,11.25
2018-06-14T03:58:51.173Z,11.25
2018-06-14T03:59:51.170Z,11.25
2018-06-14T04:00:51.169Z,11.25
2018-06-14T04:01:51.169Z,11.25
2018-06-14T04:02:51.173Z,11.25
2018-06-14T04:03:51.170Z,11.25
2018-06-14T04:04:51.167Z,11.25
2018-06-14T04:05:51.167Z,11.25
2018-06-14T04:06:51.166Z,11.25
2018-06-14T04:07:51.163Z,11.25
2018-06-14T04:08:51.166Z,11.25
2018-06-14T04:09:51.163Z,11.25
2018-06-14T04:10:51.163Z,16.88
2018-06-14T04:11:51.161Z,16.88
2018-06-14T04:12:51.161Z,16.88
2018-06-14T04:13:51.162Z,16.88
2018-06-14T04:14:51.161Z,16.88
2018-06-14T04:15:51.158Z,16.88
2018-06-14T04:16:51.157Z,16.88
2018-06-14T04:17:51.156Z,22.50
2018-06-14T04:18:51.157Z,22.50
2018-06-14T04:19:51.156Z,22.50
2018-06-14T04:20:51.154Z,22.50
2018-06-14T04:21:51.152Z,22.50
2018-06-14T04:22:51.153Z,22.50
2018-06-14T04:23:51.158Z,22.50
2018-06-14T04:24:51.149Z,22.50
2018-06-14T04:25:51.154Z,22.50
2018-06-14T04:26:51.150Z,22.50
2018-06-14T04:27:51.147Z,22.50
2018-06-14T04:28:51.149Z,22.50
2018-06-14T04:29:51.145Z,28.13
2018-06-14T04:30:51.146Z,28.13
2018-06-14T04:31:51.144Z,28.13
2018-06-14T04:32:51.148Z,28.13
2018-06-14T04:33:51.146Z,28.13
2018-06-14T04:34:51.144Z,28.13
2018-06-14T04:35:51.143Z,28.13
2018-06-14T04:36:51.143Z,28.13
2018-06-14T04:37:51.149Z,33.75
2018-06-14T04:38:51.142Z,33.75
2018-06-14T04:39:51.138Z,33.75
2018-06-14T04:40:51.139Z,33.75
2018-06-14T04:41:51.139Z,33.75
2018-06-14T04:42:51.139Z,33.75
2018-06-14T04:43:51.137Z,33.75
2018-06-14T04:44:51.136Z,33.75
2018-06-14T04:45:51.190Z,33.75
2018-06-14T04:46:51.137Z,33.75
2018-06-14T04:47:51.136Z,33.75
2018-06-14T04:48:51.135Z,33.75
2018-06-14T04:49:51.135Z,28.13
2018-06-14T04:50:51.135Z,28.13
2018-06-14T04:51:51.137Z,28.13
2018-06-14T04:52:51.133Z,28.13
2018-06-14T04:53:51.133Z,28.13
2018-06-14T04:54:51.131Z,28.13
2018-06-14T04:55:51.135Z,28.13
2018-06-14T04:56:51.131Z,33.75
2018-06-14T04:57:51.129Z,33.75
2018-06-14T04:58:51.131Z,33.75
2018-06-14T04:59:51.128Z,33.75
2018-06-14T05:00:51.130Z,39.38
2018-06-14T05:01:51.124Z,39.38
2018-06-14T05:02:51.128Z,39.38
2018-06-14T05:03:51.127Z,39.38
2018-06-14T05:04:51.127Z,45.00
2018-06-14T05:05:51.130Z,45.00
2018-06-14T05:06:51.126Z,45.00
2018-06-14T05:07:51.132Z,45.00
2018-06-14T05:08:51.126Z,45.00
2018-06-14T05:09:51.126Z,45.00
2018-06-14T05:10:51.127Z,45.00
2018-06-14T05:11:51.129Z,45.00
2018-06-14T05:12:51.124Z,50.63
2018-06-14T05:13:51.178Z,56.25
2018-06-14T05:14:51.124Z,61.88
2018-06-14T05:15:51.128Z,67.50
2018-06-14T05:16:51.126Z,73.13
2018-06-14T05:17:51.125Z,78.75
2018-06-14T05:18:51.125Z,78.75
2018-06-14T05:19:51.124Z,78.75
2018-06-14T05:20:51.127Z,78.75
2018-06-14T05:21:51.124Z,78.75
2018-06-14T05:22:51.128Z,78.75
2018-06-14T05:23:51.123Z,78.75
2018-06-14T05:24:51.124Z,84.38
2018-06-14T05:25:51.124Z,84.38
2018-06-14T05:26:51.124Z,90.00
2018-06-14T05:27:51.124Z,90.00
2018-06-14T05:28:51.121Z,90.00
2018-06-14T05:29:51.123Z,90.00
2018-06-14T05:30:51.139Z,84.38
2018-06-14T05:31:51.127Z,90.00
2018-06-14T05:32:51.124Z,90.00
2018-06-14T05:33:51.124Z,95.63
2018-06-14T05:34:51.126Z,101.25
2018-06-14T05:35:51.125Z,101.25
2018-06-14T05:36:51.124Z,106.88
2018-06-14T05:37:51.125Z,112.50
2018-06-14T05:38:51.125Z,118.13
2018-06-14T05:39:51.126Z,118.13
2018-06-14T05:40:51.125Z,123.75
2018-06-14T05:41:51.126Z,123.75
2018-06-14T05:42:51.123Z,112.50
2018-06-14T05:43:51.126Z,106.88
2018-06-14T05:44:51.124Z,106.88
2018-06-14T05:45:51.128Z,106.88
2018-06-14T05:46:51.128Z,118.13
2018-06-14T05:47:51.197Z,123.75
2018-06-14T05:48:51.130Z,129.38
2018-06-14T05:49:51.129Z,135.00
2018-06-14T05:50:51.131Z,140.63
2018-06-14T05:51:51.133Z,146.25
2018-06-14T05:52:51.131Z,264.38
2018-06-14T05:53:51.131Z,196.88
2018-06-14T05:54:51.133Z,196.88
2018-06-14T05:55:51.132Z,286.88
2018-06-14T05:56:51.133Z,281.25
2018-06-14T05:57:51.135Z,180.00
2018-06-14T05:58:51.137Z,191.25
2018-06-14T05:59:51.134Z,191.25
2018-06-14T06:00:51.136Z,225.00
2018-06-14T06:01:51.140Z,241.88
2018-06-14T06:02:51.175Z,174.38
2018-06-14T06:03:51.140Z,174.38
2018-06-14T06:04:51.141Z,225.00
2018-06-14T06:05:51.144Z,309.38
2018-06-14T06:06:51.142Z,247.50
2018-06-14T06:07:51.147Z,253.13
2018-06-14T06:08:51.146Z,219.38
2018-06-14T06:09:51.151Z,230.63
2018-06-14T06:10:51.157Z,208.13
2018-06-14T06:11:51.204Z,337.50
2018-06-14T06:12:51.158Z,292.50
2018-06-14T06:13:51.159Z,264.38
2018-06-14T06:14:51.159Z,275.63
2018-06-14T06:15:51.162Z,326.25
2018-06-14T06:16:51.163Z,365.63
2018-06-14T06:17:51.169Z,315.00
2018-06-14T06:18:51.170Z,219.38
2018-06-14T06:19:51.189Z,241.88
2018-06-14T06:20:51.174Z,225.00
2018-06-14T06:21:51.180Z,270.00
2018-06-14T06:22:51.178Z,320.63
2018-06-14T06:23:51.181Z,219.38
2018-06-14T06:24:51.185Z,208.13
2018-06-14T06:25:51.184Z,208.13
2018-06-14T06:26:51.189Z,230.63
2018-06-14T06:27:51.194Z,208.13
2018-06-14T06:28:51.196Z,202.50
2018-06-14T06:29:51.199Z,196.88
2018-06-14T06:30:51.200Z,196.88
2018-06-14T06:31:51.207Z,225.00
2018-06-14T06:32:51.208Z,191.25
2018-06-14T06:33:51.211Z,180.00
2018-06-14T06:34:51.215Z,191.25
2018-06-14T06:35:51.219Z,168.75
2018-06-14T06:36:51.219Z,191.25
2018-06-14T06:37:51.221Z,208.13
2018-06-14T06:38:51.224Z,230.63
2018-06-14T06:39:51.226Z,275.63
2018-06-14T06:40:51.228Z,371.25
2018-06-14T06:41:51.232Z,523.13
2018-06-14T06:42:51.237Z,528.75
2018-06-14T06:43:51.236Z,540.00
2018-06-14T06:44:51.241Z,562.50
2018-06-14T06:45:51.239Z,579.38
2018-06-14T06:46:51.244Z,579.38
2018-06-14T06:47:51.244Z,590.63
2018-06-14T06:48:51.248Z,601.88
2018-06-14T06:49:51.253Z,618.75
2018-06-14T06:50:51.259Z,624.38
2018-06-14T06:51:51.261Z,630.00
2018-06-14T06:52:51.435Z,618.75
2018-06-14T06:53:51.268Z,630.00
2018-06-14T06:54:51.266Z,641.25
2018-06-14T06:55:51.277Z,646.88
2018-06-14T06:56:51.276Z,573.75
2018-06-14T06:57:51.281Z,618.75
2018-06-14T06:58:51.325Z,337.50
2018-06-14T06:59:51.291Z,658.13
2018-06-14T07:00:51.295Z,568.13
2018-06-14T07:01:51.300Z,596.25
2018-06-14T07:02:51.305Z,697.50
2018-06-14T07:03:51.307Z,725.63
2018-06-14T07:04:51.312Z,348.75
2018-06-14T07:05:51.328Z,658.13
2018-06-14T07:06:51.328Z,708.75
2018-06-14T07:07:51.325Z,725.63
2018-06-14T07:08:51.330Z,348.75
2018-06-14T07:09:51.337Z,776.25
2018-06-14T07:10:51.340Z,798.75
2018-06-14T07:11:51.563Z,815.63
2018-06-14T07:12:51.349Z,652.50
2018-06-14T07:13:51.356Z,180.00
2018-06-14T07:14:51.359Z,151.88
2018-06-14T07:15:51.365Z,151.88
2018-06-14T07:16:51.370Z,174.38
2018-06-14T07:17:51.376Z,151.88
2018-06-14T07:18:51.382Z,129.38
2018-06-14T07:19:51.387Z,123.75
2018-06-14T07:20:51.393Z,123.75
2018-06-14T07:21:51.439Z,123.75
2018-06-14T07:22:51.405Z,118.13
2018-06-14T07:23:51.403Z,106.88
2018-06-14T07:24:51.408Z,101.25
2018-06-14T07:25:51.413Z,112.50
2018-06-14T07:26:51.415Z,123.75
2018-06-14T07:27:51.419Z,135.00
2018-06-14T07:28:51.424Z,157.50
2018-06-14T07:29:51.432Z,208.13
2018-06-14T07:30:51.433Z,281.25
2018-06-14T07:31:51.441Z,736.88
2018-06-14T07:32:51.438Z,613.13
2018-06-14T07:33:51.445Z,405.00
2018-06-14T07:34:51.448Z,208.13
2018-06-14T07:35:51.452Z,270.00
2018-06-14T07:36:51.455Z,281.25
2018-06-14T07:37:51.459Z,151.88
2018-06-14T07:38:51.464Z,135.00
2018-06-14T07:39:51.464Z,129.38
2018-06-14T07:40:51.487Z,129.38
2018-06-14T07:41:51.475Z,146.25
2018-06-14T07:42:51.765Z,174.38
2018-06-14T07:43:51.484Z,315.00
2018-06-14T07:44:51.485Z,303.75
2018-06-14T07:45:51.488Z,804.38
2018-06-14T07:46:51.501Z,185.63
2018-06-14T07:47:51.502Z,146.25
2018-06-14T07:48:51.499Z,129.38
2018-06-14T07:49:51.506Z,123.75
2018-06-14T07:50:51.507Z,123.75
2018-06-14T07:51:51.563Z,129.38
2018-06-14T07:52:51.513Z,140.63
2018-06-14T07:53:51.517Z,146.25
2018-06-14T07:54:51.519Z,157.50
2018-06-14T07:55:51.523Z,444.38
2018-06-14T07:56:51.530Z,191.25
2018-06-14T07:57:51.786Z,146.25
2018-06-14T07:58:51.530Z,135.00
2018-06-14T07:59:51.610Z,129.38
2018-06-14T08:00:51.538Z,129.38
2018-06-14T08:01:51.548Z,118.13
2018-06-14T08:02:51.548Z,112.50
2018-06-14T08:03:51.547Z,106.88
2018-06-14T08:04:51.552Z,106.88
2018-06-14T08:05:51.555Z,112.50
2018-06-14T08:06:51.560Z,438.75
2018-06-14T08:07:51.560Z,168.75
2018-06-14T08:08:51.566Z,135.00
2018-06-14T08:09:51.887Z,765.00
2018-06-14T08:10:51.571Z,776.25
2018-06-14T08:11:51.572Z,781.88
2018-06-14T08:12:51.892Z,787.50
2018-06-14T08:13:51.635Z,765.00
2018-06-14T08:14:51.585Z,793.13
2018-06-14T08:15:51.597Z,742.50
2018-06-14T08:16:51.596Z,810.00
2018-06-14T08:17:51.598Z,776.25
2018-06-14T08:18:51.611Z,793.13
2018-06-14T08:19:51.613Z,236.25
2018-06-14T08:20:51.619Z,230.63
2018-06-14T08:21:51.628Z,163.13
2018-06-14T08:22:51.632Z,157.50
2018-06-14T08:23:51.640Z,140.63
2018-06-14T08:24:51.638Z,129.38
2018-06-14T08:25:51.644Z,118.13
2018-06-14T08:26:51.651Z,123.75
2018-06-14T08:27:51.657Z,129.38
2018-06-14T08:28:51.662Z,135.00
2018-06-14T08:29:51.670Z,129.38
2018-06-14T08:30:51.789Z,129.38
2018-06-14T08:31:51.674Z,151.88
2018-06-14T08:32:51.678Z,658.13
2018-06-14T08:33:51.683Z,135.00
2018-06-14T08:34:51.687Z,208.13
2018-06-14T08:35:51.692Z,781.88
2018-06-14T08:36:51.696Z,798.75
2018-06-14T08:37:51.700Z,765.00
2018-06-14T08:38:51.704Z,753.75
2018-06-14T08:39:51.709Z,736.88
2018-06-14T08:40:51.714Z,736.88
2018-06-14T08:41:51.720Z,720.00
2018-06-14T08:42:51.727Z,714.38
2018-06-14T08:43:51.727Z,708.75
2018-06-14T08:44:51.799Z,742.50
2018-06-14T08:45:51.782Z,736.88
2018-06-14T08:46:51.747Z,725.63
2018-06-14T08:47:51.759Z,725.63
2018-06-14T08:48:51.764Z,680.63
2018-06-14T08:49:51.772Z,691.88
2018-06-14T08:50:51.778Z,675.00
2018-06-14T08:51:51.781Z,472.50
2018-06-14T08:52:51.794Z,551.25
2018-06-14T08:53:51.808Z,523.13
2018-06-14T08:54:51.810Z,466.88
2018-06-14T08:55:51.812Z,315.00
2018-06-14T08:56:51.822Z,219.38
2018-06-14T08:57:51.861Z,174.38
2018-06-14T08:58:51.840Z,180.00
2018-06-14T08:59:51.847Z,151.88
2018-06-14T09:00:51.856Z,157.50
2018-06-14T09:01:51.867Z,129.38
2018-06-14T09:02:51.877Z,106.88
2018-06-14T09:03:51.877Z,95.63
2018-06-14T09:04:51.886Z,90.00
2018-06-14T09:05:51.893Z,84.38
2018-06-14T09:06:51.899Z,84.38
2018-06-14T09:07:51.904Z,84.38
2018-06-14T09:08:51.911Z,84.38
2018-06-14T09:09:51.918Z,84.38
2018-06-14T09:10:51.924Z,73.13
2018-06-14T09:11:51.929Z,84.38
2018-06-14T09:12:51.935Z,78.75
2018-06-14T09:13:51.943Z,90.00
2018-06-14T09:14:51.954Z,95.63
2018-06-14T09:15:51.947Z,101.25
2018-06-14T09:16:51.948Z,106.88
2018-06-14T09:17:51.955Z,106.88
2018-06-14T09:18:51.960Z,106.88
2018-06-14T09:19:51.964Z,101.25
2018-06-14T09:20:51.968Z,101.25
2018-06-14T09:21:51.974Z,101.25
2018-06-14T09:22:51.980Z,95.63
2018-06-14T09:23:51.982Z,95.63
2018-06-14T09:24:51.987Z,90.00
2018-06-14T09:25:51.992Z,90.00
2018-06-14T09:26:51.997Z,90.00
2018-06-14T09:27:52.000Z,90.00
2018-06-14T09:28:52.005Z,84.38
2018-06-14T09:29:52.037Z,84.38
2018-06-14T09:30:52.013Z,78.75
2018-06-14T09:31:52.016Z,78.75
2018-06-14T09:32:52.019Z,78.75
2018-06-14T09:33:52.021Z,84.38
2018-06-14T09:34:52.027Z,84.38
2018-06-14T09:35:52.050Z,84.38
2018-06-14T09:36:52.034Z,84.38
2018-06-14T09:37:52.041Z,84.38
2018-06-14T09:38:52.042Z,84.38
2018-06-14T09:39:52.054Z,84.38
2018-06-14T09:40:52.047Z,84.38
2018-06-14T09:41:52.052Z,78.75
2018-06-14T09:42:52.123Z,73.13
2018-06-14T09:43:52.055Z,67.50
2018-06-14T09:44:52.058Z,67.50
2018-06-14T09:45:52.063Z,73.13
2018-06-14T09:46:52.068Z,73.13
2018-06-14T09:47:52.071Z,73.13
2018-06-14T09:48:52.071Z,67.50
2018-06-14T09:49:52.075Z,73.13
2018-06-14T09:50:52.078Z,67.50
2018-06-14T09:51:52.078Z,67.50
2018-06-14T09:52:52.081Z,73.13
2018-06-14T09:53:52.088Z,78.75
2018-06-14T09:54:52.095Z,84.38
2018-06-14T09:55:52.091Z,84.38
2018-06-14T09:56:52.095Z,84.38
2018-06-14T09:57:52.096Z,73.13
2018-06-14T09:58:52.101Z,67.50
2018-06-14T09:59:52.102Z,78.75
2018-06-14T10:00:52.101Z,78.75
2018-06-14T10:01:52.113Z,84.38
2018-06-14T10:02:52.113Z,84.38
2018-06-14T10:03:52.114Z,78.75
2018-06-14T10:04:52.117Z,73.13
2018-06-14T10:05:52.119Z,73.13
2018-06-14T10:06:52.125Z,67.50
2018-06-14T10:07:52.124Z,67.50
2018-06-14T10:08:52.129Z,61.88
2018-06-14T10:09:52.131Z,61.88
2018-06-14T10:10:52.134Z,61.88
2018-06-14T10:11:52.136Z,61.88
2018-06-14T10:12:52.138Z,61.88
2018-06-14T10:13:52.141Z,67.50
2018-06-14T10:14:52.143Z,67.50
2018-06-14T10:15:52.148Z,67.50
2018-06-14T10:16:52.147Z,61.88
2018-06-14T10:17:52.148Z,78.75
2018-06-14T10:18:52.157Z,73.13
2018-06-14T10:19:52.156Z,73.13
2018-06-14T10:20:52.158Z,73.13
2018-06-14T10:21:52.214Z,73.13
2018-06-14T10:22:52.167Z,67.50
2018-06-14T10:23:52.167Z,67.50
2018-06-14T10:24:52.169Z,67.50
2018-06-14T10:25:52.173Z,61.88
2018-06-14T10:26:52.174Z,61.88
2018-06-14T10:27:52.175Z,61.88
2018-06-14T10:28:52.180Z,61.88
2018-06-14T10:29:52.183Z,56.25
2018-06-14T10:30:52.185Z,56.25
2018-06-14T10:31:52.192Z,56.25
2018-06-14T10:32:52.190Z,56.25
2018-06-14T10:33:52.194Z,56.25
2018-06-14T10:34:52.195Z,56.25
2018-06-14T10:35:52.198Z,56.25
2018-06-14T10:36:52.201Z,56.25
2018-06-14T10:37:52.202Z,56.25
2018-06-14T10:38:52.203Z,56.25
2018-06-14T10:39:52.206Z,56.25
2018-06-14T10:40:52.209Z,56.25
2018-06-14T10:41:52.215Z,56.25
2018-06-14T10:42:52.213Z,56.25
2018-06-14T10:43:52.214Z,56.25
2018-06-14T10:44:52.223Z,56.25
2018-06-14T10:45:52.222Z,56.25
2018-06-14T10:46:52.224Z,56.25
2018-06-14T10:47:52.225Z,56.25
2018-06-14T10:48:52.228Z,56.25
2018-06-14T10:49:52.235Z,56.25
2018-06-14T10:50:52.232Z,56.25
2018-06-14T10:51:52.233Z,56.25
2018-06-14T10:52:52.237Z,56.25
2018-06-14T10:53:52.240Z,56.25
2018-06-14T10:54:52.245Z,56.25
2018-06-14T10:55:52.243Z,56.25
2018-06-14T10:56:52.245Z,56.25
2018-06-14T10:57:52.248Z,56.25
2018-06-14T10:58:52.251Z,56.25
2018-06-14T10:59:52.251Z,56.25
2018-06-14T11:00:52.254Z,56.25
2018-06-14T11:01:52.256Z,56.25
2018-06-14T11:02:52.260Z,50.63
2018-06-14T11:03:52.257Z,56.25
2018-06-14T11:04:52.261Z,56.25
2018-06-14T11:05:52.297Z,56.25
2018-06-14T11:06:52.265Z,56.25
2018-06-14T11:07:52.269Z,56.25
2018-06-14T11:08:52.273Z,56.25
2018-06-14T11:09:52.279Z,56.25
2018-06-14T11:10:52.278Z,50.63
2018-06-14T11:11:52.280Z,50.63
2018-06-14T11:12:52.280Z,50.63
2018-06-14T11:13:52.568Z,50.63
2018-06-14T11:14:52.285Z,50.63
2018-06-14T11:15:52.290Z,50.63
2018-06-14T11:16:52.296Z,50.63
2018-06-14T11:17:52.297Z,50.63
2018-06-14T11:18:52.295Z,50.63
2018-06-14T11:19:52.298Z,50.63
2018-06-14T11:20:52.300Z,50.63
2018-06-14T11:21:52.302Z,50.63
2018-06-14T11:22:52.305Z,50.63
2018-06-14T11:23:52.306Z,50.63
2018-06-14T11:24:52.465Z,50.63
2018-06-14T11:25:52.311Z,50.63
2018-06-14T11:26:52.315Z,50.63
2018-06-14T11:27:52.649Z,50.63
2018-06-14T11:28:52.324Z,50.63
2018-06-14T11:29:52.324Z,50.63
2018-06-14T11:30:52.323Z,50.63
2018-06-14T11:31:52.326Z,50.63
2018-06-14T11:32:52.331Z,50.63
2018-06-14T11:33:52.330Z,50.63
2018-06-14T11:34:52.334Z,50.63
2018-06-14T11:35:52.335Z,50.63
2018-06-14T11:36:52.340Z,50.63
2018-06-14T11:37:52.343Z,50.63
2018-06-14T11:38:52.345Z,50.63
2018-06-14T11:39:52.351Z,50.63
2018-06-14T11:40:52.350Z,50.63
2018-06-14T11:41:52.355Z,50.63
2018-06-14T11:42:52.355Z,50.63
2018-06-14T11:43:52.483Z,50.63
2018-06-14T11:44:52.358Z,50.63
2018-06-14T11:45:52.446Z,50.63
2018-06-14T11:46:52.391Z,50.63
2018-06-14T11:47:52.365Z,50.63
2018-06-14T11:48:52.369Z,50.63
2018-06-14T11:49:52.373Z,50.63
2018-06-14T11:50:52.376Z,50.63
2018-06-14T11:51:52.379Z,50.63
2018-06-14T11:52:52.378Z,50.63
2018-06-14T11:53:52.383Z,50.63
2018-06-14T11:54:52.384Z,50.63
2018-06-14T11:55:52.387Z,50.63
2018-06-14T11:56:52.391Z,50.63
2018-06-14T11:57:52.398Z,50.63
2018-06-14T11:58:52.397Z,50.63
2018-06-14T11:59:52.399Z,50.63
2018-06-14T12:00:52.402Z,50.63
2018-06-14T12:01:52.404Z,45.00
2018-06-14T12:02:52.410Z,50.63
2018-06-14T12:03:52.410Z,50.63
2018-06-14T12:04:52.413Z,45.00
2018-06-14T12:05:52.416Z,45.00
2018-06-14T12:06:52.685Z,45.00
2018-06-14T12:07:52.420Z,45.00
2018-06-14T12:08:52.424Z,45.00
2018-06-14T12:09:52.430Z,45.00
2018-06-14T12:10:52.429Z,50.63
2018-06-14T12:11:52.434Z,50.63
2018-06-14T12:12:52.439Z,45.00
2018-06-14T12:13:52.440Z,50.63
2018-06-14T12:14:52.444Z,45.00
2018-06-14T12:15:52.446Z,50.63
2018-06-14T12:16:52.449Z,50.63
2018-06-14T12:17:52.449Z,50.63
2018-06-14T12:18:52.453Z,50.63
2018-06-14T12:19:52.993Z,50.63
2018-06-14T12:20:52.461Z,50.63
2018-06-14T12:21:52.463Z,50.63
2018-06-14T12:22:52.467Z,50.63
2018-06-14T12:23:52.780Z,50.63
2018-06-14T12:24:52.472Z,50.63
2018-06-14T12:25:52.499Z,50.63
2018-06-14T12:26:52.479Z,50.63
2018-06-14T12:27:52.482Z,50.63
2018-06-14T12:28:52.488Z,50.63
2018-06-14T12:29:52.489Z,50.63
2018-06-14T12:30:52.491Z,50.63
2018-06-14T12:31:52.494Z,50.63
2018-06-14T12:32:52.497Z,56.25
2018-06-14T12:33:52.500Z,56.25
2018-06-14T12:34:52.504Z,50.63
2018-06-14T12:35:52.506Z,56.25
2018-06-14T12:36:52.520Z,56.25
2018-06-14T12:37:52.520Z,56.25
2018-06-14T12:38:52.516Z,50.63
2018-06-14T12:39:52.519Z,50.63
2018-06-14T12:40:52.522Z,50.63
2018-06-14T12:41:52.525Z,50.63
2018-06-14T12:42:52.527Z,50.63
2018-06-14T12:43:52.531Z,50.63
2018-06-14T12:44:52.536Z,50.63
2018-06-14T12:45:52.537Z,50.63
2018-06-14T12:46:52.541Z,50.63
2018-06-14T12:47:52.543Z,50.63
2018-06-14T12:48:52.548Z,50.63
2018-06-14T12:49:52.549Z,50.63
2018-06-14T12:50:52.559Z,50.63
2018-06-14T12:51:52.555Z,50.63
2018-06-14T12:52:52.559Z,50.63